createdAt,value
2022-12-31T00:01:57.492Z,17.53
2022-12-31T00:05:19.298Z,17.75
2022-12-31T00:08:22.719Z,16.60
2022-12-31T00:11:28.022Z,17.05
2022-12-31T00:14:39.095Z,18.23
2022-12-31T00:17:55.638Z,16.83
2022-12-31T00:21:20.425Z,17.88
2022-12-31T00:24:36.742Z,18.45
2022-12-31T00:27:59.543Z,17.83
2022-12-31T00:31:29.309Z,16.40
2022-12-31T00:34:32.388Z,17.13
2022-12-31T00:37:39.007Z,17.08
2022-12-31T00:40:47.187Z,16.25
2022-12-31T00:43:58.072Z,17.55
2022-12-31T00:47:24.329Z,16.00
2022-12-31T00:50:47.363Z,15.60
2022-12-31T00:54:12.351Z,16.00
2022-12-31T00:57:32.431Z,15.95
2022-12-31T01:00:52.328Z,16.60
2022-12-31T01:04:20.346Z,15.00
2022-12-31T01:07:33.496Z,17.77
2022-12-31T01:11:13.846Z,17.88
2022-12-31T01:14:20.840Z,16.75
2022-12-31T01:17:40.283Z,19.17
2022-12-31T01:21:00.383Z,16.53
2022-12-31T01:24:22.216Z,17.23
2022-12-31T01:27:33.497Z,15.90
2022-12-31T01:30:39.900Z,15.52
2022-12-31T01:33:55.165Z,15.35
2022-12-31T01:36:58.155Z,14.77
2022-12-31T01:40:01.260Z,14.20
2022-12-31T01:43:26.205Z,13.73
2022-12-31T01:46:59.300Z,12.88
2022-12-31T01:50:16.166Z,13.30
2022-12-31T01:53:19.540Z,12.70
2022-12-31T01:56:26.257Z,12.40
2022-12-31T01:59:33.459Z,12.95
2022-12-31T02:02:36.625Z,12.60
2022-12-31T02:06:07.124Z,13.63
2022-12-31T02:09:20.273Z,13.47
2022-12-31T02:12:40.961Z,12.70
2022-12-31T02:16:07.140Z,13.05
2022-12-31T02:19:39.189Z,12.88
2022-12-31T02:22:54.592Z,12.95
2022-12-31T02:26:44.234Z,13.40
2022-12-31T02:30:15.153Z,12.70
2022-12-31T02:33:47.678Z,14.07
2022-12-31T02:37:13.031Z,13.23
2022-12-31T02:40:32.095Z,12.85
2022-12-31T02:43:53.984Z,13.90
2022-12-31T02:47:23.746Z,14.00
2022-12-31T02:50:55.706Z,14.18
2022-12-31T02:54:19.477Z,14.57
2022-12-31T02:57:25.965Z,15.15
2022-12-31T03:01:09.291Z,15.87
2022-12-31T03:04:32.768Z,16.07
2022-12-31T03:07:41.504Z,14.77
2022-12-31T03:10:57.073Z,15.75
2022-12-31T03:14:17.747Z,15.95
2022-12-31T03:17:38.588Z,15.67
2022-12-31T03:21:15.984Z,15.10
2022-12-31T03:24:43.187Z,15.95
2022-12-31T03:27:47.362Z,15.70
2022-12-31T03:31:06.058Z,15.52
2022-12-31T03:34:18.522Z,17.53
2022-12-31T03:37:33.944Z,15.17
2022-12-31T03:41:01.935Z,16.27
2022-12-31T03:44:24.410Z,15.35
2022-12-31T03:47:46.861Z,15.60
2022-12-31T03:51:21.858Z,14.93
2022-12-31T03:54:46.716Z,13.73
2022-12-31T03:58:09.688Z,15.15
2022-12-31T04:01:30.826Z,15.48
2022-12-31T04:04:52.739Z,15.90
2022-12-31T04:08:03.133Z,16.23
2022-12-31T04:11:25.881Z,15.93
2022-12-31T04:14:59.790Z,16.20
2022-12-31T04:18:21.830Z,16.80
2022-12-31T04:21:37.951Z,16.20
2022-12-31T04:24:59.775Z,15.93
2022-12-31T04:28:28.782Z,17.53
2022-12-31T04:31:52.679Z,16.52
2022-12-31T04:35:13.683Z,17.75
2022-12-31T04:38:36.947Z,17.55
2022-12-31T04:41:58.051Z,18.67
2022-12-31T04:45:10.638Z,17.40
2022-12-31T04:48:33.639Z,19.20
2022-12-31T04:52:04.897Z,20.08
2022-12-31T04:55:28.660Z,19.17
2022-12-31T04:58:50.859Z,19.00
2022-12-31T05:02:10.787Z,20.23
2022-12-31T05:05:33.660Z,19.65
2022-12-31T05:08:51.779Z,21.13
2022-12-31T05:12:11.628Z,20.83
2022-12-31T05:15:31.780Z,19.87
2022-12-31T05:18:39.306Z,19.43
2022-12-31T05:21:42.847Z,20.45
2022-12-31T05:24:58.635Z,20.73
2022-12-31T05:28:19.779Z,19.52
2022-12-31T05:31:35.654Z,20.47
2022-12-31T05:34:52.147Z,19.80
2022-12-31T05:38:21.649Z,21.25
2022-12-31T05:41:50.188Z,21.38
2022-12-31T05:44:59.109Z,20.58
2022-12-31T05:48:21.551Z,21.73
2022-12-31T05:51:58.602Z,20.37
2022-12-31T05:55:19.709Z,21.58
2022-12-31T05:58:36.665Z,20.77
2022-12-31T06:01:54.104Z,21.08
2022-12-31T06:05:26.131Z,20.07
2022-12-31T06:08:52.599Z,21.67
2022-12-31T06:12:04.290Z,20.98
2022-12-31T06:15:49.435Z,21.85
2022-12-31T06:19:50.174Z,20.73
2022-12-31T06:22:57.173Z,19.83
2022-12-31T06:26:05.374Z,19.20
2022-12-31T06:29:12.807Z,20.77
2022-12-31T06:32:30.834Z,20.13
2022-12-31T06:35:52.442Z,21.60
2022-12-31T06:38:59.438Z,20.27
2022-12-31T06:42:11.268Z,19.37
2022-12-31T06:45:15.556Z,20.10
2022-12-31T06:48:44.068Z,21.95
2022-12-31T06:52:08.641Z,19.85
2022-12-31T06:55:28.538Z,19.00
2022-12-31T06:58:40.295Z,20.07
2022-12-31T07:06:28.064Z,19.05
2022-12-31T07:10:53.045Z,17.60
2022-12-31T07:14:55.774Z,18.10
2022-12-31T07:18:29.909Z,18.60
2022-12-31T07:21:41.502Z,18.40
2022-12-31T07:24:52.082Z,18.17
2022-12-31T07:28:33.456Z,18.38
2022-12-31T07:32:42.754Z,18.93
2022-12-31T07:36:27.799Z,17.60
2022-12-31T07:40:20.479Z,18.70
2022-12-31T07:43:50.026Z,20.63
2022-12-31T07:50:44.223Z,20.03
2022-12-31T07:54:15.514Z,20.57
2022-12-31T07:57:44.185Z,21.20
2022-12-31T08:01:32.319Z,20.50
2022-12-31T08:05:00.705Z,20.42
2022-12-31T08:09:16.177Z,19.57
2022-12-31T08:12:40.831Z,20.60
2022-12-31T08:20:05.501Z,21.33
2022-12-31T08:24:12.882Z,21.20
2022-12-31T08:28:17.349Z,20.90
2022-12-31T08:31:58.310Z,19.43
2022-12-31T08:35:39.320Z,20.80
2022-12-31T08:38:57.702Z,20.75
2022-12-31T08:43:07.587Z,20.48
2022-12-31T08:46:47.327Z,19.83
2022-12-31T08:49:57.589Z,19.90
2022-12-31T08:53:47.509Z,20.88
2022-12-31T08:57:33.933Z,20.95
2022-12-31T09:01:05.212Z,20.17
2022-12-31T09:04:22.832Z,22.73
2022-12-31T09:08:22.272Z,21.43
2022-12-31T09:12:42.931Z,21.45
2022-12-31T09:20:48.777Z,19.60
2022-12-31T09:23:56.341Z,20.30
2022-12-31T09:27:27.765Z,20.00
2022-12-31T09:31:06.241Z,18.95
2022-12-31T09:34:46.833Z,18.83
2022-12-31T09:38:25.185Z,20.77
2022-12-31T09:42:17.107Z,20.23
2022-12-31T09:45:52.334Z,20.97
2022-12-31T09:49:40.848Z,20.98
2022-12-31T09:53:10.657Z,19.58
2022-12-31T09:56:34.005Z,22.27
2022-12-31T10:00:12.340Z,22.17
2022-12-31T10:03:27.928Z,22.43
2022-12-31T10:07:00.663Z,23.08
2022-12-31T10:10:31.081Z,24.27
2022-12-31T10:14:03.154Z,22.80
2022-12-31T10:17:28.309Z,23.53
2022-12-31T10:20:48.181Z,23.57
2022-12-31T10:24:23.400Z,24.15
2022-12-31T10:27:55.115Z,23.00
2022-12-31T10:31:05.010Z,23.48
2022-12-31T10:34:32.060Z,23.37
2022-12-31T10:38:02.376Z,23.80
2022-12-31T10:41:24.765Z,23.70
2022-12-31T10:45:24.039Z,23.25
2022-12-31T10:49:02.595Z,21.67
2022-12-31T10:52:20.231Z,23.60
2022-12-31T10:55:52.119Z,21.67
2022-12-31T11:00:13.529Z,23.20
2022-12-31T11:04:15.220Z,23.23
2022-12-31T11:07:58.759Z,22.90
2022-12-31T11:12:03.832Z,23.73
2022-12-31T11:15:54.186Z,23.03
2022-12-31T11:19:36.415Z,23.25
2022-12-31T11:23:09.835Z,23.33
2022-12-31T11:26:37.707Z,23.15
2022-12-31T11:30:15.522Z,23.80
2022-12-31T11:34:00.191Z,24.80
2022-12-31T11:37:29.306Z,24.73
2022-12-31T11:40:54.178Z,25.35
2022-12-31T11:44:25.809Z,25.85
2022-12-31T11:48:34.180Z,25.30
2022-12-31T11:52:09.977Z,25.87
2022-12-31T11:55:46.142Z,25.38
2022-12-31T11:58:56.752Z,25.85
2022-12-31T12:03:08.907Z,25.50
2022-12-31T12:06:46.367Z,24.73
2022-12-31T12:09:57.926Z,26.83
2022-12-31T12:13:31.519Z,25.73
2022-12-31T12:16:46.970Z,25.10
2022-12-31T12:20:01.762Z,26.30
2022-12-31T12:23:18.437Z,25.93
2022-12-31T12:26:42.831Z,25.07
2022-12-31T12:30:35.405Z,24.98
2022-12-31T12:42:23.622Z,27.07
2022-12-31T12:46:15.648Z,25.30
2022-12-31T12:49:40.857Z,24.95
2022-12-31T12:53:37.265Z,25.98
2022-12-31T12:56:57.656Z,26.48
2022-12-31T13:00:45.873Z,24.53
2022-12-31T13:04:35.819Z,26.50
2022-12-31T13:08:38.932Z,25.85
2022-12-31T13:12:25.868Z,26.85
2022-12-31T13:22:27.791Z,26.67
2022-12-31T13:26:27.489Z,29.90
2022-12-31T13:30:07.551Z,27.38
2022-12-31T13:33:26.800Z,27.50
2022-12-31T13:37:07.451Z,28.38
2022-12-31T13:40:26.293Z,28.53
2022-12-31T13:43:59.110Z,28.53
2022-12-31T13:47:15.785Z,28.33
2022-12-31T13:50:58.073Z,30.30
2022-12-31T13:54:22.864Z,27.33
2022-12-31T13:58:57.950Z,29.80
2022-12-31T14:02:31.415Z,26.33
2022-12-31T14:06:35.534Z,27.80
2022-12-31T14:09:43.658Z,27.45
2022-12-31T14:13:57.294Z,30.30
2022-12-31T14:17:36.734Z,27.83
2022-12-31T14:21:27.037Z,27.47
2022-12-31T14:24:51.648Z,27.67
2022-12-31T14:28:13.985Z,26.98
2022-12-31T14:31:49.278Z,26.80
2022-12-31T14:35:34.067Z,25.50
2022-12-31T14:38:53.359Z,27.70
2022-12-31T14:42:23.518Z,27.60
2022-12-31T14:45:38.771Z,28.88
2022-12-31T14:48:58.714Z,28.67
2022-12-31T14:52:25.266Z,28.50
2022-12-31T14:55:43.886Z,27.87
2022-12-31T14:59:01.480Z,27.50
2022-12-31T15:02:27.142Z,26.02
2022-12-31T15:05:41.687Z,25.20
2022-12-31T15:09:08.633Z,26.43
2022-12-31T15:12:34.497Z,24.47
2022-12-31T15:16:15.143Z,25.10
2022-12-31T15:19:37.786Z,24.30
2022-12-31T15:22:52.588Z,24.13
2022-12-31T15:26:00.804Z,24.23
2022-12-31T15:29:08.772Z,24.70
2022-12-31T15:32:32.357Z,23.95
2022-12-31T15:35:51.563Z,23.65
2022-12-31T15:39:35.497Z,24.20
2022-12-31T15:42:55.786Z,24.93
2022-12-31T15:46:10.091Z,24.33
2022-12-31T15:49:23.636Z,23.90
2022-12-31T15:53:06.319Z,24.98
2022-12-31T15:56:48.833Z,22.80
2022-12-31T15:59:59.690Z,24.27
2022-12-31T16:03:02.836Z,23.90
2022-12-31T16:06:15.126Z,24.58
2022-12-31T16:09:30.620Z,23.15
2022-12-31T16:12:45.510Z,23.70
2022-12-31T16:16:36.350Z,25.40
2022-12-31T16:19:44.885Z,24.73
2022-12-31T16:22:54.942Z,28.90
2022-12-31T16:26:02.645Z,31.40
2022-12-31T16:29:24.384Z,29.67
2022-12-31T16:32:35.700Z,27.17
2022-12-31T16:35:44.806Z,27.60
2022-12-31T16:39:27.448Z,51.55
2022-12-31T16:42:31.210Z,28.08
2022-12-31T16:45:46.101Z,34.53
2022-12-31T16:49:01.925Z,32.37
2022-12-31T16:52:30.816Z,32.80
2022-12-31T16:55:46.631Z,30.38
2022-12-31T16:59:15.049Z,28.73
2022-12-31T17:03:19.246Z,28.60
2022-12-31T17:06:18.788Z,28.10
2022-12-31T17:09:36.845Z,29.67
2022-12-31T17:13:29.551Z,27.67
2022-12-31T17:16:36.736Z,26.75
2022-12-31T17:20:00.107Z,26.80
2022-12-31T17:23:33.250Z,28.00
2022-12-31T17:34:36.194Z,41.78
2022-12-31T17:38:43.354Z,32.53
2022-12-31T17:43:01.095Z,35.27
2022-12-31T17:46:42.759Z,34.53
2022-12-31T17:50:36.027Z,34.90
2022-12-31T17:53:59.053Z,32.70
2022-12-31T17:57:37.364Z,33.58
2022-12-31T18:00:58.331Z,33.57
2022-12-31T18:04:13.058Z,34.83
2022-12-31T18:07:34.337Z,34.50
2022-12-31T18:10:56.519Z,33.90
2022-12-31T18:14:00.327Z,35.22
2022-12-31T18:17:16.465Z,37.40
2022-12-31T18:20:20.453Z,37.63
2022-12-31T18:26:59.239Z,34.83
2022-12-31T18:30:08.156Z,36.25
2022-12-31T18:33:29.755Z,37.47
2022-12-31T18:36:45.959Z,37.80
2022-12-31T18:40:10.688Z,36.92
2022-12-31T18:43:19.448Z,37.97
2022-12-31T18:46:27.832Z,37.05
2022-12-31T18:49:37.646Z,36.50
2022-12-31T18:53:00.583Z,41.00
2022-12-31T18:56:26.301Z,44.55
2022-12-31T18:59:36.195Z,44.78
2022-12-31T19:02:55.740Z,47.05
2022-12-31T19:06:25.603Z,50.60
2022-12-31T19:09:49.136Z,47.53
2022-12-31T19:13:12.489Z,49.13
2022-12-31T19:16:39.566Z,54.08
2022-12-31T19:19:42.525Z,54.10
2022-12-31T19:22:48.834Z,53.90
2022-12-31T19:26:10.756Z,50.27
2022-12-31T19:29:39.462Z,49.30
2022-12-31T19:32:59.606Z,46.88
2022-12-31T19:36:04.308Z,47.97
2022-12-31T19:39:26.645Z,47.90
2022-12-31T19:42:42.884Z,48.00
2022-12-31T19:45:47.087Z,47.20
2022-12-31T19:48:51.897Z,46.53
2022-12-31T19:52:05.665Z,47.90
2022-12-31T19:55:35.079Z,49.00
2022-12-31T19:58:50.355Z,48.00
2022-12-31T20:02:11.690Z,49.33
2022-12-31T20:05:36.838Z,51.72
2022-12-31T20:08:55.564Z,52.60
2022-12-31T20:11:58.583Z,51.33
2022-12-31T20:15:01.657Z,54.97
2022-12-31T20:18:10.860Z,49.97
2022-12-31T20:21:36.318Z,51.28
2022-12-31T20:25:02.836Z,50.38
2022-12-31T20:28:22.920Z,52.90
2022-12-31T20:31:36.120Z,50.17
2022-12-31T20:34:48.106Z,57.10
2022-12-31T20:38:00.683Z,71.57
2022-12-31T20:41:13.253Z,77.50
2022-12-31T20:44:20.068Z,68.63
2022-12-31T20:47:33.952Z,65.37
2022-12-31T20:50:54.287Z,66.03
2022-12-31T20:54:19.620Z,62.65
2022-12-31T20:57:39.540Z,56.95
2022-12-31T21:00:52.954Z,54.23
2022-12-31T21:04:05.972Z,55.10
2022-12-31T21:07:13.657Z,58.30
2022-12-31T21:10:24.027Z,55.80
2022-12-31T21:13:50.591Z,58.53
2022-12-31T21:17:16.281Z,53.73
2022-12-31T21:20:39.207Z,54.60
2022-12-31T21:23:43.167Z,58.20
2022-12-31T21:26:48.932Z,58.25
2022-12-31T21:30:18.440Z,55.78
2022-12-31T21:33:45.186Z,53.60
2022-12-31T21:37:22.179Z,53.77
2022-12-31T21:40:51.000Z,52.33
2022-12-31T21:44:15.068Z,53.65
2022-12-31T21:47:53.233Z,52.92
2022-12-31T21:51:14.959Z,53.50
2022-12-31T21:54:41.560Z,51.93
2022-12-31T21:58:23.943Z,51.88
2022-12-31T22:01:40.864Z,50.65
2022-12-31T22:05:02.293Z,51.38
2022-12-31T22:08:06.817Z,50.37
2022-12-31T22:11:16.492Z,49.17
2022-12-31T22:14:35.195Z,52.95
2022-12-31T22:17:56.990Z,48.65
2022-12-31T22:21:21.298Z,47.00
2022-12-31T22:24:24.282Z,47.17
2022-12-31T22:27:29.294Z,48.67
2022-12-31T22:30:39.911Z,49.63
2022-12-31T22:33:58.740Z,47.97
2022-12-31T22:37:27.485Z,48.60
2022-12-31T22:40:48.581Z,46.00
2022-12-31T22:44:11.003Z,47.30
2022-12-31T22:47:31.720Z,46.47
2022-12-31T22:50:41.798Z,46.58
2022-12-31T22:54:04.986Z,45.63
2022-12-31T22:57:27.935Z,47.77
2022-12-31T23:00:48.898Z,46.00
2022-12-31T23:04:11.967Z,48.00
2022-12-31T23:07:28.050Z,46.72
2022-12-31T23:11:06.589Z,45.85
2022-12-31T23:14:42.601Z,45.97
2022-12-31T23:18:08.686Z,44.77
2022-12-31T23:21:32.719Z,45.53
2022-12-31T23:24:37.996Z,48.60
2022-12-31T23:27:57.043Z,51.85
2022-12-31T23:31:14.025Z,52.17
2022-12-31T23:34:36.924Z,53.73
2022-12-31T23:38:03.961Z,61.83
2022-12-31T23:41:31.729Z,65.70
2022-12-31T23:44:41.834Z,53.58
2022-12-31T23:48:09.001Z,57.47
2022-12-31T23:51:35.733Z,62.63
2022-12-31T23:54:56.672Z,67.65
2022-12-31T23:58:19.896Z,59.38
